Terminal Aerodrome Forecast
Issued by NWS

Home | Current Version | Previous Version | Text Only | Print | Product List | Glossary On
Versions: 1 2 3 4 5 6 7 8 9 10 11 12 13 14 15 16 17 18 19 20 21
575
FTUS41 KGYX 131425 AAA
TAFRKD
TAF AMD
KRKD 131425Z 1314/1412 36008G16KT 1/2SM SN FG OVC006
      TEMPO 1314/1318 1/4SM +SN FG VV002
     FM132200 34012G22KT 2SM -SN BLSN OVC012
     FM140500 32013G22KT 5SM -SHSN BLSN OVC040
     FM141000 32012G20KT 6SM BLSN BKN050
      AMD LTD TO CLD VIS AND WIND=

USA.gov is the U.S. government's official web portal to all federal, state and local government web resources and services.